SNK525 RPMR-RPMZ
Flight info
| Callsign | SNK525 |
|---|---|
| Flight time | 0h 46m |
| Altitude | 28000 |
| Route | LATIA4P LATIA W10A COT W10 GOSTO GOSTO2W |
| Aircraft | B738/M-SDE2E3FGHIRWXY/LB1 |
Departure
| Time | 2026-04-21 08:43 |
|---|---|
| Airport | General Santos International Airport (RPMR) |
Arrival
| Time | 2026-04-21 09:29 |
|---|---|
| Airport | Zamboanga International Airport (RPMZ) |
| Time | Latitude | Longitude | Altitude | Speed | Heading |
|---|---|---|---|---|---|
| 2026-04-21 08:27 | 6.05787 | 125.09963 | 511 ft | 0 kts | 83° |
| 2026-04-21 08:34 | 6.05786 | 125.09958 | 511 ft | 1 kts | 89° |
| 2026-04-21 08:35 | 6.05786 | 125.09943 | 511 ft | 2 kts | 81° |
| 2026-04-21 08:35 | 6.05784 | 125.09928 | 511 ft | 2 kts | 84° |
| 2026-04-21 08:35 | 6.05782 | 125.09913 | 511 ft | 2 kts | 91° |
| 2026-04-21 08:35 | 6.05785 | 125.09899 | 511 ft | 2 kts | 111° |
| 2026-04-21 08:36 | 6.05792 | 125.09885 | 511 ft | 2 kts | 130° |
| 2026-04-21 08:36 | 6.05803 | 125.09875 | 511 ft | 2 kts | 148° |
| 2026-04-21 08:36 | 6.05817 | 125.09869 | 511 ft | 2 kts | 166° |
| 2026-04-21 08:36 | 6.05824 | 125.09868 | 511 ft | 1 kts | 176° |
| 2026-04-21 08:37 | 6.05829 | 125.09867 | 511 ft | 0 kts | 174° |
| 2026-04-21 08:38 | 6.05828 | 125.09867 | 511 ft | 0 kts | 174° |
| 2026-04-21 08:38 | 6.05818 | 125.09869 | 511 ft | 2 kts | 174° |
| 2026-04-21 08:38 | 6.05788 | 125.09872 | 511 ft | 5 kts | 173° |
| 2026-04-21 08:38 | 6.05732 | 125.09878 | 511 ft | 11 kts | 173° |
| 2026-04-21 08:39 | 6.05627 | 125.09892 | 511 ft | 18 kts | 173° |
| 2026-04-21 08:39 | 6.05513 | 125.09906 | 511 ft | 14 kts | 173° |
| 2026-04-21 08:39 | 6.05431 | 125.09907 | 511 ft | 9 kts | 204° |
| 2026-04-21 08:39 | 6.05412 | 125.09849 | 511 ft | 11 kts | 266° |
| 2026-04-21 08:40 | 6.05401 | 125.09756 | 511 ft | 16 kts | 262° |
| 2026-04-21 08:40 | 6.05366 | 125.09677 | 511 ft | 10 kts | 196° |
| 2026-04-21 08:40 | 6.05273 | 125.09685 | 511 ft | 16 kts | 171° |
| 2026-04-21 08:40 | 6.05138 | 125.09701 | 511 ft | 22 kts | 174° |
| 2026-04-21 08:41 | 6.04963 | 125.09721 | 511 ft | 28 kts | 173° |
| 2026-04-21 08:41 | 6.04752 | 125.09747 | 511 ft | 32 kts | 172° |
| 2026-04-21 08:41 | 6.04534 | 125.09781 | 511 ft | 27 kts | 166° |
| 2026-04-21 08:41 | 6.04390 | 125.09800 | 511 ft | 7 kts | 229° |
| 2026-04-21 08:42 | 6.04407 | 125.09784 | 511 ft | 3 kts | 19° |
| 2026-04-21 08:42 | 6.04458 | 125.09785 | 511 ft | 27 kts | 352° |
| 2026-04-21 08:42 | 6.04940 | 125.09724 | 511 ft | 109 kts | 353° |
| 2026-04-21 08:42 | 6.05916 | 125.09609 | 512 ft | 173 kts | 353° |
| 2026-04-21 08:43 | 6.07217 | 125.09448 | 938 ft | 193 kts | 353° |
| 2026-04-21 08:43 | 6.08522 | 125.09335 | 1787 ft | 192 kts | 359° |
| 2026-04-21 08:43 | 6.09854 | 125.09454 | 2412 ft | 200 kts | 10° |
| 2026-04-21 08:43 | 6.11267 | 125.09853 | 2703 ft | 222 kts | 21° |
| 2026-04-21 08:44 | 6.12687 | 125.10588 | 3019 ft | 246 kts | 34° |
| 2026-04-21 08:44 | 6.14031 | 125.11763 | 3625 ft | 261 kts | 49° |
| 2026-04-21 08:44 | 6.15173 | 125.13203 | 4348 ft | 275 kts | 53° |
| 2026-04-21 08:44 | 6.16324 | 125.14758 | 5258 ft | 280 kts | 53° |
| 2026-04-21 08:45 | 6.17493 | 125.16327 | 6087 ft | 287 kts | 53° |
| 2026-04-21 08:45 | 6.18676 | 125.17915 | 6974 ft | 291 kts | 53° |
| 2026-04-21 08:45 | 6.19900 | 125.19559 | 7849 ft | 295 kts | 52° |
| 2026-04-21 08:45 | 6.21112 | 125.21186 | 8700 ft | 298 kts | 52° |
| 2026-04-21 08:46 | 6.22373 | 125.22852 | 9555 ft | 301 kts | 48° |
| 2026-04-21 08:46 | 6.23985 | 125.24148 | 10326 ft | 301 kts | 21° |
| 2026-04-21 08:46 | 6.26044 | 125.24745 | 10672 ft | 319 kts | 9° |
| 2026-04-21 08:46 | 6.28263 | 125.25176 | 11183 ft | 332 kts | 9° |
| 2026-04-21 08:47 | 6.30534 | 125.25667 | 11713 ft | 343 kts | 11° |
| 2026-04-21 08:47 | 6.32849 | 125.26189 | 12549 ft | 343 kts | 11° |
| 2026-04-21 08:47 | 6.35196 | 125.26721 | 13124 ft | 352 kts | 11° |
| 2026-04-21 08:47 | 6.37567 | 125.27263 | 14004 ft | 350 kts | 11° |
| 2026-04-21 08:48 | 6.39945 | 125.27808 | 14558 ft | 357 kts | 11° |
| 2026-04-21 08:48 | 6.42362 | 125.28302 | 15311 ft | 357 kts | 5° |
| 2026-04-21 08:48 | 6.44820 | 125.28094 | 15878 ft | 358 kts | 340° |
| 2026-04-21 08:48 | 6.46993 | 125.26920 | 16531 ft | 360 kts | 323° |
| 2026-04-21 08:49 | 6.48933 | 125.25348 | 17166 ft | 362 kts | 321° |
| 2026-04-21 08:49 | 6.50925 | 125.23745 | 17677 ft | 368 kts | 322° |
| 2026-04-21 08:49 | 6.52923 | 125.22160 | 18351 ft | 368 kts | 322° |
| 2026-04-21 08:49 | 6.54926 | 125.20564 | 18781 ft | 376 kts | 322° |
| 2026-04-21 08:50 | 6.56978 | 125.18927 | 19466 ft | 375 kts | 322° |
| 2026-04-21 08:50 | 6.59038 | 125.17284 | 19844 ft | 383 kts | 322° |
| 2026-04-21 08:50 | 6.61102 | 125.15636 | 20509 ft | 382 kts | 322° |
| 2026-04-21 08:50 | 6.63053 | 125.13799 | 20848 ft | 390 kts | 308° |
| 2026-04-21 08:51 | 6.64475 | 125.11513 | 21513 ft | 389 kts | 300° |
| 2026-04-21 08:51 | 6.65772 | 125.09071 | 21780 ft | 398 kts | 300° |
| 2026-04-21 08:51 | 6.67099 | 125.06659 | 22408 ft | 396 kts | 300° |
| 2026-04-21 08:51 | 6.68489 | 125.04198 | 22704 ft | 403 kts | 301° |
| 2026-04-21 08:52 | 6.69861 | 125.01793 | 23228 ft | 403 kts | 301° |
| 2026-04-21 08:52 | 6.71275 | 124.99326 | 23588 ft | 408 kts | 301° |
| 2026-04-21 08:52 | 6.72694 | 124.96860 | 24039 ft | 410 kts | 301° |
| 2026-04-21 08:52 | 6.74126 | 124.94383 | 24431 ft | 412 kts | 301° |
| 2026-04-21 08:53 | 6.75580 | 124.91870 | 24782 ft | 417 kts | 301° |
| 2026-04-21 08:53 | 6.77035 | 124.89359 | 25230 ft | 417 kts | 301° |
| 2026-04-21 08:53 | 6.78504 | 124.86826 | 25543 ft | 422 kts | 301° |
| 2026-04-21 08:53 | 6.79988 | 124.84270 | 25963 ft | 422 kts | 301° |
| 2026-04-21 08:54 | 6.81470 | 124.81718 | 26266 ft | 426 kts | 301° |
| 2026-04-21 08:54 | 6.82964 | 124.79146 | 26627 ft | 428 kts | 301° |
| 2026-04-21 08:54 | 6.84435 | 124.76517 | 26949 ft | 432 kts | 296° |
| 2026-04-21 08:54 | 6.85312 | 124.73651 | 27238 ft | 436 kts | 278° |
| 2026-04-21 08:55 | 6.85538 | 124.70654 | 27725 ft | 435 kts | 273° |
| 2026-04-21 08:55 | 6.85665 | 124.67580 | 27892 ft | 440 kts | 274° |
| 2026-04-21 08:55 | 6.85837 | 124.64522 | 27907 ft | 436 kts | 274° |
| 2026-04-21 08:55 | 6.86036 | 124.61479 | 27914 ft | 430 kts | 275° |
| 2026-04-21 08:56 | 6.86239 | 124.58499 | 27914 ft | 430 kts | 275° |
| 2026-04-21 08:56 | 6.86451 | 124.55476 | 27913 ft | 431 kts | 275° |
| 2026-04-21 08:56 | 6.86666 | 124.52483 | 27912 ft | 432 kts | 275° |
| 2026-04-21 08:56 | 6.86888 | 124.49444 | 27912 ft | 432 kts | 275° |
| 2026-04-21 08:57 | 6.87111 | 124.46430 | 27912 ft | 432 kts | 275° |
| 2026-04-21 08:57 | 6.87332 | 124.43455 | 27911 ft | 432 kts | 275° |
| 2026-04-21 08:57 | 6.87560 | 124.40413 | 27911 ft | 432 kts | 275° |
| 2026-04-21 08:57 | 6.87786 | 124.37405 | 27912 ft | 432 kts | 275° |
| 2026-04-21 08:58 | 6.88015 | 124.34378 | 27912 ft | 431 kts | 275° |
| 2026-04-21 08:58 | 6.88240 | 124.31403 | 27912 ft | 431 kts | 275° |
| 2026-04-21 08:58 | 6.88464 | 124.28436 | 27912 ft | 431 kts | 275° |
| 2026-04-21 08:58 | 6.88696 | 124.25374 | 27912 ft | 431 kts | 275° |
| 2026-04-21 08:59 | 6.88922 | 124.22388 | 27912 ft | 432 kts | 275° |
| 2026-04-21 08:59 | 6.89150 | 124.19381 | 27912 ft | 432 kts | 275° |
| 2026-04-21 08:59 | 6.89376 | 124.16392 | 27912 ft | 432 kts | 275° |
| 2026-04-21 08:59 | 6.89605 | 124.13363 | 27912 ft | 432 kts | 275° |
| 2026-04-21 09:00 | 6.89833 | 124.10349 | 27912 ft | 432 kts | 275° |
| 2026-04-21 09:00 | 6.90061 | 124.07340 | 27912 ft | 432 kts | 275° |
| 2026-04-21 09:00 | 6.90288 | 124.04327 | 27912 ft | 432 kts | 275° |
| 2026-04-21 09:00 | 6.90517 | 124.01295 | 27914 ft | 438 kts | 275° |
| 2026-04-21 09:01 | 6.90749 | 123.98222 | 27912 ft | 444 kts | 275° |
| 2026-04-21 09:01 | 6.90986 | 123.95081 | 27913 ft | 449 kts | 275° |
| 2026-04-21 09:01 | 6.91223 | 123.91927 | 27911 ft | 454 kts | 275° |
| 2026-04-21 09:01 | 6.91463 | 123.88737 | 27911 ft | 459 kts | 275° |
| 2026-04-21 09:02 | 6.91702 | 123.85560 | 27913 ft | 463 kts | 275° |
| 2026-04-21 09:02 | 6.91947 | 123.82291 | 27912 ft | 467 kts | 275° |
| 2026-04-21 09:02 | 6.92192 | 123.79025 | 27911 ft | 471 kts | 275° |
| 2026-04-21 09:03 | 6.92686 | 123.72428 | 27910 ft | 477 kts | 275° |
| 2026-04-21 09:03 | 6.92934 | 123.69109 | 27910 ft | 480 kts | 275° |
| 2026-04-21 09:03 | 6.93185 | 123.65754 | 27891 ft | 483 kts | 275° |
| 2026-04-21 09:03 | 6.93437 | 123.62371 | 27632 ft | 482 kts | 275° |
| 2026-04-21 09:04 | 6.93684 | 123.59046 | 27380 ft | 469 kts | 275° |
| 2026-04-21 09:04 | 6.93921 | 123.55852 | 27131 ft | 453 kts | 275° |
| 2026-04-21 09:04 | 6.94154 | 123.52722 | 26827 ft | 439 kts | 275° |
| 2026-04-21 09:04 | 6.94379 | 123.49693 | 26290 ft | 432 kts | 275° |
| 2026-04-21 09:05 | 6.94600 | 123.46711 | 25717 ft | 427 kts | 275° |
| 2026-04-21 09:05 | 6.94820 | 123.43758 | 25139 ft | 423 kts | 275° |
| 2026-04-21 09:05 | 6.95036 | 123.40849 | 24565 ft | 421 kts | 275° |
| 2026-04-21 09:05 | 6.95255 | 123.37901 | 23982 ft | 420 kts | 275° |
| 2026-04-21 09:06 | 6.95469 | 123.35006 | 23407 ft | 417 kts | 275° |
| 2026-04-21 09:06 | 6.95685 | 123.32093 | 22828 ft | 413 kts | 275° |
| 2026-04-21 09:06 | 6.95896 | 123.29239 | 22260 ft | 408 kts | 275° |
| 2026-04-21 09:06 | 6.96106 | 123.26403 | 21695 ft | 402 kts | 275° |
| 2026-04-21 09:07 | 6.96309 | 123.23650 | 21146 ft | 397 kts | 275° |
| 2026-04-21 09:07 | 6.96512 | 123.20901 | 20595 ft | 392 kts | 275° |
| 2026-04-21 09:07 | 6.96712 | 123.18183 | 20050 ft | 386 kts | 275° |
| 2026-04-21 09:07 | 6.96908 | 123.15523 | 19514 ft | 381 kts | 275° |
| 2026-04-21 09:08 | 6.97105 | 123.12856 | 18976 ft | 376 kts | 275° |
| 2026-04-21 09:08 | 6.97295 | 123.10269 | 18453 ft | 372 kts | 275° |
| 2026-04-21 09:08 | 6.97484 | 123.07701 | 17934 ft | 367 kts | 275° |
| 2026-04-21 09:08 | 6.97670 | 123.05157 | 17418 ft | 362 kts | 275° |
| 2026-04-21 09:09 | 6.97855 | 123.02643 | 16909 ft | 358 kts | 275° |
| 2026-04-21 09:09 | 6.98037 | 123.00163 | 16403 ft | 353 kts | 275° |
| 2026-04-21 09:09 | 6.98216 | 122.97716 | 15905 ft | 349 kts | 275° |
| 2026-04-21 09:09 | 6.98394 | 122.95283 | 15408 ft | 345 kts | 275° |
| 2026-04-21 09:10 | 6.98568 | 122.92909 | 14924 ft | 341 kts | 275° |
| 2026-04-21 09:10 | 6.98742 | 122.90534 | 14436 ft | 337 kts | 275° |
| 2026-04-21 09:10 | 6.98911 | 122.88223 | 13955 ft | 329 kts | 275° |
| 2026-04-21 09:10 | 6.99075 | 122.85966 | 13507 ft | 322 kts | 275° |
| 2026-04-21 09:11 | 6.99239 | 122.83719 | 13041 ft | 319 kts | 275° |
| 2026-04-21 09:11 | 6.99400 | 122.81515 | 12590 ft | 315 kts | 275° |
| 2026-04-21 09:11 | 6.99558 | 122.79354 | 12264 ft | 308 kts | 275° |
| 2026-04-21 09:11 | 6.99714 | 122.77203 | 11863 ft | 304 kts | 275° |
| 2026-04-21 09:12 | 6.99867 | 122.75105 | 11430 ft | 302 kts | 275° |
| 2026-04-21 09:12 | 7.00021 | 122.72993 | 10994 ft | 299 kts | 274° |
| 2026-04-21 09:12 | 6.99965 | 122.70908 | 10584 ft | 298 kts | 264° |
| 2026-04-21 09:12 | 6.99718 | 122.68873 | 10334 ft | 290 kts | 264° |
| 2026-04-21 09:13 | 6.99487 | 122.66885 | 10186 ft | 278 kts | 264° |
| 2026-04-21 09:13 | 6.99272 | 122.64990 | 9885 ft | 274 kts | 264° |
| 2026-04-21 09:13 | 6.99054 | 122.63081 | 9515 ft | 272 kts | 264° |
| 2026-04-21 09:13 | 6.98840 | 122.61202 | 9139 ft | 270 kts | 264° |
| 2026-04-21 09:14 | 6.98628 | 122.59338 | 8766 ft | 268 kts | 263° |
| 2026-04-21 09:14 | 6.98416 | 122.57474 | 8386 ft | 267 kts | 263° |
| 2026-04-21 09:14 | 6.98206 | 122.55630 | 8008 ft | 266 kts | 263° |
| 2026-04-21 09:14 | 6.97996 | 122.53789 | 7634 ft | 265 kts | 263° |
| 2026-04-21 09:15 | 6.97784 | 122.51930 | 7252 ft | 264 kts | 263° |
| 2026-04-21 09:15 | 6.97577 | 122.50114 | 6972 ft | 258 kts | 263° |
| 2026-04-21 09:15 | 6.97377 | 122.48359 | 6853 ft | 252 kts | 263° |
| 2026-04-21 09:15 | 6.97069 | 122.46581 | 6655 ft | 260 kts | 253° |
| 2026-04-21 09:16 | 6.96482 | 122.44865 | 6243 ft | 260 kts | 250° |
| 2026-04-21 09:16 | 6.95876 | 122.43148 | 5934 ft | 257 kts | 250° |
| 2026-04-21 09:16 | 6.95297 | 122.41469 | 5651 ft | 253 kts | 250° |
| 2026-04-21 09:16 | 6.94731 | 122.39822 | 5379 ft | 248 kts | 250° |
| 2026-04-21 09:17 | 6.94169 | 122.38184 | 5109 ft | 244 kts | 250° |
| 2026-04-21 09:17 | 6.93625 | 122.36594 | 4846 ft | 240 kts | 250° |
| 2026-04-21 09:17 | 6.93088 | 122.35027 | 4587 ft | 237 kts | 250° |
| 2026-04-21 09:17 | 6.92557 | 122.33474 | 4341 ft | 230 kts | 250° |
| 2026-04-21 09:18 | 6.92047 | 122.31983 | 4083 ft | 223 kts | 250° |
| 2026-04-21 09:18 | 6.91552 | 122.30537 | 3853 ft | 215 kts | 250° |
| 2026-04-21 09:18 | 6.91076 | 122.29145 | 3702 ft | 202 kts | 250° |
| 2026-04-21 09:18 | 6.90764 | 122.27851 | 3640 ft | 182 kts | 267° |
| 2026-04-21 09:19 | 6.91028 | 122.26630 | 3643 ft | 183 kts | 296° |
| 2026-04-21 09:19 | 6.91873 | 122.25652 | 3648 ft | 188 kts | 324° |
| 2026-04-21 09:19 | 6.93100 | 122.25185 | 3649 ft | 191 kts | 354° |
| 2026-04-21 09:19 | 6.94400 | 122.25373 | 3649 ft | 193 kts | 24° |
| 2026-04-21 09:20 | 6.95466 | 122.26196 | 3650 ft | 193 kts | 54° |
| 2026-04-21 09:20 | 6.95988 | 122.27423 | 3651 ft | 191 kts | 84° |
| 2026-04-21 09:20 | 6.95945 | 122.28745 | 3666 ft | 190 kts | 96° |
| 2026-04-21 09:20 | 6.95873 | 122.30062 | 3662 ft | 190 kts | 94° |
| 2026-04-21 09:21 | 6.95808 | 122.31409 | 3665 ft | 189 kts | 95° |
| 2026-04-21 09:21 | 6.95739 | 122.32730 | 3669 ft | 189 kts | 95° |
| 2026-04-21 09:21 | 6.95631 | 122.34038 | 3660 ft | 189 kts | 104° |
| 2026-04-21 09:21 | 6.95059 | 122.35211 | 3650 ft | 185 kts | 135° |
| 2026-04-21 09:22 | 6.94006 | 122.35912 | 3656 ft | 182 kts | 163° |
| 2026-04-21 09:22 | 6.92768 | 122.36066 | 3657 ft | 180 kts | 188° |
| 2026-04-21 09:22 | 6.91607 | 122.35636 | 3654 ft | 179 kts | 216° |
| 2026-04-21 09:22 | 6.90790 | 122.34717 | 3657 ft | 180 kts | 241° |
| 2026-04-21 09:23 | 6.90457 | 122.33511 | 3655 ft | 182 kts | 267° |
| 2026-04-21 09:23 | 6.90541 | 122.32240 | 3666 ft | 182 kts | 271° |
| 2026-04-21 09:23 | 6.90605 | 122.30970 | 3663 ft | 182 kts | 271° |
| 2026-04-21 09:23 | 6.90672 | 122.29690 | 3661 ft | 182 kts | 271° |
| 2026-04-21 09:24 | 6.90739 | 122.28412 | 3633 ft | 183 kts | 271° |
| 2026-04-21 09:24 | 6.90818 | 122.27138 | 3514 ft | 183 kts | 272° |
| 2026-04-21 09:24 | 6.90905 | 122.25861 | 3381 ft | 182 kts | 272° |
| 2026-04-21 09:24 | 6.90990 | 122.24584 | 3229 ft | 182 kts | 272° |
| 2026-04-21 09:25 | 6.91074 | 122.23326 | 3052 ft | 178 kts | 272° |
| 2026-04-21 09:25 | 6.91153 | 122.22134 | 2881 ft | 169 kts | 272° |
| 2026-04-21 09:25 | 6.91232 | 122.20943 | 2736 ft | 170 kts | 272° |
| 2026-04-21 09:25 | 6.91311 | 122.19753 | 2603 ft | 167 kts | 272° |
| 2026-04-21 09:26 | 6.91388 | 122.18617 | 2379 ft | 163 kts | 272° |
| 2026-04-21 09:26 | 6.91463 | 122.17512 | 2139 ft | 154 kts | 271° |
| 2026-04-21 09:26 | 6.91535 | 122.16447 | 1955 ft | 154 kts | 271° |
| 2026-04-21 09:26 | 6.91608 | 122.15371 | 1733 ft | 153 kts | 271° |
| 2026-04-21 09:27 | 6.91679 | 122.14315 | 1530 ft | 151 kts | 272° |
| 2026-04-21 09:27 | 6.91750 | 122.13264 | 1322 ft | 147 kts | 271° |
| 2026-04-21 09:27 | 6.91819 | 122.12238 | 1151 ft | 151 kts | 272° |
| 2026-04-21 09:27 | 6.91891 | 122.11174 | 918 ft | 149 kts | 272° |
| 2026-04-21 09:28 | 6.91961 | 122.10134 | 700 ft | 149 kts | 272° |
| 2026-04-21 09:28 | 6.92038 | 122.09103 | 476 ft | 149 kts | 272° |
| 2026-04-21 09:28 | 6.92103 | 122.08071 | 274 ft | 148 kts | 271° |
| 2026-04-21 09:28 | 6.92169 | 122.07033 | 57 ft | 147 kts | 272° |
| 2026-04-21 09:29 | 6.92227 | 122.06150 | 35 ft | 96 kts | 275° |
| 2026-04-21 09:29 | 6.92246 | 122.05710 | 30 ft | 34 kts | 269° |
| 2026-04-21 09:29 | 6.92268 | 122.05630 | 29 ft | 2 kts | 34° |
| 2026-04-21 09:29 | 6.92267 | 122.05656 | 30 ft | 8 kts | 98° |
| 2026-04-21 09:30 | 6.92254 | 122.05783 | 31 ft | 27 kts | 94° |
| 2026-04-21 09:30 | 6.92225 | 122.05976 | 35 ft | 22 kts | 128° |
| 2026-04-21 09:30 | 6.92143 | 122.06062 | 35 ft | 9 kts | 99° |
| 2026-04-21 09:30 | 6.92142 | 122.06068 | 35 ft | 0 kts | 96° |
| 2026-04-21 09:31 | 6.92142 | 122.06070 | 35 ft | 0 kts | 96° |
| 2026-04-21 09:31 | 6.92141 | 122.06081 | 35 ft | 2 kts | 96° |
| 2026-04-21 09:32 | 6.92139 | 122.06102 | 35 ft | 3 kts | 93° |
| 2026-04-21 09:32 | 6.92138 | 122.06127 | 35 ft | 3 kts | 93° |
| 2026-04-21 09:32 | 6.92136 | 122.06156 | 35 ft | 4 kts | 93° |
| 2026-04-21 09:32 | 6.92132 | 122.06185 | 35 ft | 4 kts | 107° |
| 2026-04-21 09:33 | 6.92112 | 122.06206 | 35 ft | 4 kts | 153° |
| 2026-04-21 09:33 | 6.92083 | 122.06220 | 36 ft | 4 kts | 154° |
| 2026-04-21 09:33 | 6.92055 | 122.06233 | 36 ft | 3 kts | 155° |
| 2026-04-21 09:33 | 6.92040 | 122.06240 | 36 ft | 1 kts | 155° |
| 2026-04-21 09:34 | 6.92039 | 122.06241 | 36 ft | 0 kts | 155° |